sensor_id;sensor_type;location;lat;lon;timestamp;P1;durP1;ratioP1;P2;durP2;ratioP2
30896;SDS011;64229;52.246;21.054;2023-08-12T00:00:03;13.90;;;4.05;;
30896;SDS011;64229;52.246;21.054;2023-08-12T00:02:36;6.75;;;3.47;;
30896;SDS011;64229;52.246;21.054;2023-08-12T00:05:01;9.93;;;4.50;;
30896;SDS011;64229;52.246;21.054;2023-08-12T00:07:26;8.05;;;3.83;;
30896;SDS011;64229;52.246;21.054;2023-08-12T00:09:52;9.52;;;4.10;;
30896;SDS011;64229;52.246;21.054;2023-08-12T00:12:17;8.40;;;3.60;;
30896;SDS011;64229;52.246;21.054;2023-08-12T00:14:42;9.10;;;3.97;;
30896;SDS011;64229;52.246;21.054;2023-08-12T00:17:07;8.57;;;3.80;;
30896;SDS011;64229;52.246;21.054;2023-08-12T00:19:32;10.00;;;4.10;;
30896;SDS011;64229;52.246;21.054;2023-08-12T00:21:58;11.10;;;4.70;;
30896;SDS011;64229;52.246;21.054;2023-08-12T00:24:23;12.00;;;4.13;;
30896;SDS011;64229;52.246;21.054;2023-08-12T00:26:48;8.33;;;3.83;;
30896;SDS011;64229;52.246;21.054;2023-08-12T00:29:14;10.73;;;4.10;;
30896;SDS011;64229;52.246;21.054;2023-08-12T00:31:40;12.32;;;4.10;;
30896;SDS011;64229;52.246;21.054;2023-08-12T00:34:05;9.32;;;3.63;;
30896;SDS011;64229;52.246;21.054;2023-08-12T00:36:31;10.10;;;3.47;;
30896;SDS011;64229;52.246;21.054;2023-08-12T00:38:56;10.07;;;5.18;;
30896;SDS011;64229;52.246;21.054;2023-08-12T00:41:21;11.63;;;3.80;;
30896;SDS011;64229;52.246;21.054;2023-08-12T00:43:46;8.18;;;3.95;;
30896;SDS011;64229;52.246;21.054;2023-08-12T00:46:12;9.23;;;3.87;;
30896;SDS011;64229;52.246;21.054;2023-08-12T00:48:38;10.02;;;4.05;;
30896;SDS011;64229;52.246;21.054;2023-08-12T00:51:03;7.78;;;4.00;;
30896;SDS011;64229;52.246;21.054;2023-08-12T00:53:29;10.55;;;4.10;;
30896;SDS011;64229;52.246;21.054;2023-08-12T00:55:54;8.18;;;3.38;;
30896;SDS011;64229;52.246;21.054;2023-08-12T00:58:19;10.10;;;4.32;;
30896;SDS011;64229;52.246;21.054;2023-08-12T01:00:45;11.85;;;4.05;;
30896;SDS011;64229;52.246;21.054;2023-08-12T01:03:11;7.53;;;3.92;;
30896;SDS011;64229;52.246;21.054;2023-08-12T01:05:36;10.30;;;4.10;;
30896;SDS011;64229;52.246;21.054;2023-08-12T01:08:02;12.75;;;4.78;;
30896;SDS011;64229;52.246;21.054;2023-08-12T01:10:29;13.13;;;4.38;;
30896;SDS011;64229;52.246;21.054;2023-08-12T01:13:07;10.45;;;4.38;;
30896;SDS011;64229;52.246;21.054;2023-08-12T01:15:43;9.35;;;4.72;;
30896;SDS011;64229;52.246;21.054;2023-08-12T01:18:09;10.63;;;4.40;;
30896;SDS011;64229;52.246;21.054;2023-08-12T01:20:35;11.23;;;4.70;;
30896;SDS011;64229;52.246;21.054;2023-08-12T01:23:11;12.05;;;4.80;;
30896;SDS011;64229;52.246;21.054;2023-08-12T01:25:38;9.20;;;4.30;;
30896;SDS011;64229;52.246;21.054;2023-08-12T01:28:03;17.70;;;5.13;;
30896;SDS011;64229;52.246;21.054;2023-08-12T01:30:29;12.35;;;4.35;;
30896;SDS011;64229;52.246;21.054;2023-08-12T01:32:56;16.00;;;4.45;;
30896;SDS011;64229;52.246;21.054;2023-08-12T01:35:30;10.90;;;5.90;;
30896;SDS011;64229;52.246;21.054;2023-08-12T01:38:02;11.38;;;4.60;;
30896;SDS011;64229;52.246;21.054;2023-08-12T01:40:30;10.50;;;4.72;;
30896;SDS011;64229;52.246;21.054;2023-08-12T01:42:57;14.40;;;4.80;;
30896;SDS011;64229;52.246;21.054;2023-08-12T01:45:22;13.75;;;4.43;;
30896;SDS011;64229;52.246;21.054;2023-08-12T01:47:48;12.93;;;4.25;;
30896;SDS011;64229;52.246;21.054;2023-08-12T01:50:15;10.45;;;4.75;;
30896;SDS011;64229;52.246;21.054;2023-08-12T01:52:41;10.73;;;5.07;;
30896;SDS011;64229;52.246;21.054;2023-08-12T01:55:06;9.98;;;4.78;;
30896;SDS011;64229;52.246;21.054;2023-08-12T01:57:32;18.38;;;5.30;;
30896;SDS011;64229;52.246;21.054;2023-08-12T01:59:57;12.40;;;4.93;;
30896;SDS011;64229;52.246;21.054;2023-08-12T02:02:22;14.07;;;4.73;;
30896;SDS011;64229;52.246;21.054;2023-08-12T02:04:48;8.13;;;4.73;;
30896;SDS011;64229;52.246;21.054;2023-08-12T02:07:13;12.63;;;4.80;;
30896;SDS011;64229;52.246;21.054;2023-08-12T02:09:38;13.80;;;5.03;;
30896;SDS011;64229;52.246;21.054;2023-08-12T02:12:04;14.93;;;5.50;;
30896;SDS011;64229;52.246;21.054;2023-08-12T02:14:29;8.45;;;4.82;;
30896;SDS011;64229;52.246;21.054;2023-08-12T02:16:54;13.85;;;4.82;;
30896;SDS011;64229;52.246;21.054;2023-08-12T02:19:20;12.13;;;4.88;;
30896;SDS011;64229;52.246;21.054;2023-08-12T02:21:45;16.45;;;5.50;;
30896;SDS011;64229;52.246;21.054;2023-08-12T02:24:10;8.80;;;4.45;;
30896;SDS011;64229;52.246;21.054;2023-08-12T02:26:36;10.73;;;4.80;;
30896;SDS011;64229;52.246;21.054;2023-08-12T02:29:02;13.90;;;5.18;;
30896;SDS011;64229;52.246;21.054;2023-08-12T02:31:27;11.15;;;4.50;;
30896;SDS011;64229;52.246;21.054;2023-08-12T02:33:53;12.73;;;5.13;;
30896;SDS011;64229;52.246;21.054;2023-08-12T02:36:18;15.10;;;5.00;;
30896;SDS011;64229;52.246;21.054;2023-08-12T02:38:44;16.17;;;5.30;;
30896;SDS011;64229;52.246;21.054;2023-08-12T02:41:09;18.27;;;5.40;;
30896;SDS011;64229;52.246;21.054;2023-08-12T02:43:34;12.07;;;5.40;;
30896;SDS011;64229;52.246;21.054;2023-08-12T02:46:00;18.00;;;5.88;;
30896;SDS011;64229;52.246;21.054;2023-08-12T02:48:25;16.08;;;5.80;;
30896;SDS011;64229;52.246;21.054;2023-08-12T02:50:50;16.87;;;5.10;;
30896;SDS011;64229;52.246;21.054;2023-08-12T02:53:16;14.50;;;5.37;;
30896;SDS011;64229;52.246;21.054;2023-08-12T02:55:41;12.38;;;5.85;;
30896;SDS011;64229;52.246;21.054;2023-08-12T02:58:07;11.87;;;5.03;;
30896;SDS011;64229;52.246;21.054;2023-08-12T03:00:32;10.10;;;4.72;;
30896;SDS011;64229;52.246;21.054;2023-08-12T03:02:57;11.13;;;5.27;;
30896;SDS011;64229;52.246;21.054;2023-08-12T03:05:22;10.52;;;5.20;;
30896;SDS011;64229;52.246;21.054;2023-08-12T03:07:48;16.25;;;5.47;;
30896;SDS011;64229;52.246;21.054;2023-08-12T03:10:13;13.40;;;5.35;;
30896;SDS011;64229;52.246;21.054;2023-08-12T03:12:39;11.98;;;4.80;;
30896;SDS011;64229;52.246;21.054;2023-08-12T03:15:06;12.23;;;4.63;;
30896;SDS011;64229;52.246;21.054;2023-08-12T03:17:32;11.57;;;5.05;;
30896;SDS011;64229;52.246;21.054;2023-08-12T03:19:57;11.53;;;4.77;;
30896;SDS011;64229;52.246;21.054;2023-08-12T03:22:29;11.32;;;4.55;;
30896;SDS011;64229;52.246;21.054;2023-08-12T03:24:54;13.00;;;5.05;;
30896;SDS011;64229;52.246;21.054;2023-08-12T03:27:19;14.87;;;6.87;;
30896;SDS011;64229;52.246;21.054;2023-08-12T03:29:44;10.00;;;5.03;;
30896;SDS011;64229;52.246;21.054;2023-08-12T03:32:10;15.23;;;5.80;;
30896;SDS011;64229;52.246;21.054;2023-08-12T03:34:35;10.17;;;5.43;;
30896;SDS011;64229;52.246;21.054;2023-08-12T03:37:00;15.63;;;5.67;;
30896;SDS011;64229;52.246;21.054;2023-08-12T03:39:25;15.65;;;6.22;;
30896;SDS011;64229;52.246;21.054;2023-08-12T03:41:51;14.77;;;6.43;;
30896;SDS011;64229;52.246;21.054;2023-08-12T03:44:17;16.38;;;5.85;;
30896;SDS011;64229;52.246;21.054;2023-08-12T03:46:43;16.45;;;6.10;;
30896;SDS011;64229;52.246;21.054;2023-08-12T03:49:08;18.20;;;5.77;;
30896;SDS011;64229;52.246;21.054;2023-08-12T03:51:33;12.60;;;5.40;;
30896;SDS011;64229;52.246;21.054;2023-08-12T03:53:58;16.83;;;5.77;;
30896;SDS011;64229;52.246;21.054;2023-08-12T03:56:24;9.77;;;4.95;;
30896;SDS011;64229;52.246;21.054;2023-08-12T03:58:49;12.38;;;5.95;;
30896;SDS011;64229;52.246;21.054;2023-08-12T04:01:14;12.07;;;6.05;;
30896;SDS011;64229;52.246;21.054;2023-08-12T04:03:40;12.38;;;5.53;;
30896;SDS011;64229;52.246;21.054;2023-08-12T04:06:05;14.45;;;7.40;;
30896;SDS011;64229;52.246;21.054;2023-08-12T04:08:30;14.80;;;5.47;;
30896;SDS011;64229;52.246;21.054;2023-08-12T04:10:57;16.55;;;6.05;;
30896;SDS011;64229;52.246;21.054;2023-08-12T04:13:22;13.40;;;6.05;;
30896;SDS011;64229;52.246;21.054;2023-08-12T04:15:48;16.70;;;6.90;;
30896;SDS011;64229;52.246;21.054;2023-08-12T04:18:15;16.10;;;6.80;;
30896;SDS011;64229;52.246;21.054;2023-08-12T04:20:41;16.05;;;6.30;;
30896;SDS011;64229;52.246;21.054;2023-08-12T04:23:06;13.80;;;6.10;;
30896;SDS011;64229;52.246;21.054;2023-08-12T04:25:31;16.15;;;7.10;;
30896;SDS011;64229;52.246;21.054;2023-08-12T04:27:57;15.82;;;6.80;;
30896;SDS011;64229;52.246;21.054;2023-08-12T04:30:22;15.25;;;6.38;;
30896;SDS011;64229;52.246;21.054;2023-08-12T04:32:48;15.75;;;6.70;;
30896;SDS011;64229;52.246;21.054;2023-08-12T04:35:13;16.30;;;6.67;;
30896;SDS011;64229;52.246;21.054;2023-08-12T04:37:38;14.10;;;6.17;;
30896;SDS011;64229;52.246;21.054;2023-08-12T04:40:04;14.25;;;5.95;;
30896;SDS011;64229;52.246;21.054;2023-08-12T04:42:30;12.57;;;6.63;;
30896;SDS011;64229;52.246;21.054;2023-08-12T04:44:55;16.17;;;7.33;;
30896;SDS011;64229;52.246;21.054;2023-08-12T04:47:20;12.77;;;5.93;;
30896;SDS011;64229;52.246;21.054;2023-08-12T04:49:45;11.10;;;5.70;;
30896;SDS011;64229;52.246;21.054;2023-08-12T04:52:11;12.97;;;5.67;;
30896;SDS011;64229;52.246;21.054;2023-08-12T04:54:36;16.43;;;6.73;;
30896;SDS011;64229;52.246;21.054;2023-08-12T04:57:01;10.43;;;5.73;;
30896;SDS011;64229;52.246;21.054;2023-08-12T04:59:26;20.00;;;7.27;;
30896;SDS011;64229;52.246;21.054;2023-08-12T05:01:52;10.57;;;5.22;;
30896;SDS011;64229;52.246;21.054;2023-08-12T05:04:17;10.80;;;4.32;;
30896;SDS011;64229;52.246;21.054;2023-08-12T05:06:42;9.50;;;4.63;;
30896;SDS011;64229;52.246;21.054;2023-08-12T05:09:08;9.97;;;4.43;;
30896;SDS011;64229;52.246;21.054;2023-08-12T05:11:33;9.10;;;4.10;;
30896;SDS011;64229;52.246;21.054;2023-08-12T05:13:58;9.38;;;4.22;;
30896;SDS011;64229;52.246;21.054;2023-08-12T05:16:24;5.80;;;3.22;;
30896;SDS011;64229;52.246;21.054;2023-08-12T05:18:49;8.17;;;3.60;;
30896;SDS011;64229;52.246;21.054;2023-08-12T05:21:14;9.43;;;4.30;;
30896;SDS011;64229;52.246;21.054;2023-08-12T05:23:39;7.87;;;3.67;;
30896;SDS011;64229;52.246;21.054;2023-08-12T05:26:05;7.27;;;4.57;;
30896;SDS011;64229;52.246;21.054;2023-08-12T05:28:30;8.32;;;3.70;;
30896;SDS011;64229;52.246;21.054;2023-08-12T05:30:55;9.53;;;4.57;;
30896;SDS011;64229;52.246;21.054;2023-08-12T05:33:21;7.80;;;3.92;;
30896;SDS011;64229;52.246;21.054;2023-08-12T05:35:47;8.30;;;3.92;;
30896;SDS011;64229;52.246;21.054;2023-08-12T05:38:13;10.63;;;3.80;;
30896;SDS011;64229;52.246;21.054;2023-08-12T05:40:38;10.52;;;4.22;;
30896;SDS011;64229;52.246;21.054;2023-08-12T05:43:03;8.52;;;3.53;;
30896;SDS011;64229;52.246;21.054;2023-08-12T05:45:28;5.60;;;3.17;;
30896;SDS011;64229;52.246;21.054;2023-08-12T05:47:54;6.67;;;3.23;;
30896;SDS011;64229;52.246;21.054;2023-08-12T05:50:19;13.68;;;4.40;;
30896;SDS011;64229;52.246;21.054;2023-08-12T05:52:44;11.98;;;4.47;;
30896;SDS011;64229;52.246;21.054;2023-08-12T05:55:10;10.17;;;3.93;;
30896;SDS011;64229;52.246;21.054;2023-08-12T05:57:35;9.40;;;4.07;;
30896;SDS011;64229;52.246;21.054;2023-08-12T06:00:00;9.02;;;4.25;;
30896;SDS011;64229;52.246;21.054;2023-08-12T06:02:26;11.43;;;4.15;;
30896;SDS011;64229;52.246;21.054;2023-08-12T06:04:51;7.90;;;4.40;;
30896;SDS011;64229;52.246;21.054;2023-08-12T06:07:17;7.47;;;4.45;;
30896;SDS011;64229;52.246;21.054;2023-08-12T06:09:43;9.68;;;4.25;;
30896;SDS011;64229;52.246;21.054;2023-08-12T06:12:08;9.68;;;3.38;;
30896;SDS011;64229;52.246;21.054;2023-08-12T06:14:36;8.23;;;3.65;;
30896;SDS011;64229;52.246;21.054;2023-08-12T06:17:02;8.30;;;3.97;;
30896;SDS011;64229;52.246;21.054;2023-08-12T06:19:27;7.10;;;3.30;;
30896;SDS011;64229;52.246;21.054;2023-08-12T06:21:53;5.45;;;3.15;;
30896;SDS011;64229;52.246;21.054;2023-08-12T06:24:18;8.82;;;4.00;;
30896;SDS011;64229;52.246;21.054;2023-08-12T06:26:43;6.47;;;3.13;;
30896;SDS011;64229;52.246;21.054;2023-08-12T06:29:08;5.60;;;3.10;;
30896;SDS011;64229;52.246;21.054;2023-08-12T06:31:34;5.20;;;2.97;;
30896;SDS011;64229;52.246;21.054;2023-08-12T06:33:59;7.47;;;3.43;;
30896;SDS011;64229;52.246;21.054;2023-08-12T06:36:24;7.67;;;3.00;;
30896;SDS011;64229;52.246;21.054;2023-08-12T06:38:49;5.70;;;3.17;;
30896;SDS011;64229;52.246;21.054;2023-08-12T06:41:15;6.70;;;3.10;;
30896;SDS011;64229;52.246;21.054;2023-08-12T06:43:40;4.13;;;2.77;;
30896;SDS011;64229;52.246;21.054;2023-08-12T06:46:05;7.60;;;3.30;;
30896;SDS011;64229;52.246;21.054;2023-08-12T06:48:30;5.33;;;3.10;;
30896;SDS011;64229;52.246;21.054;2023-08-12T06:50:56;8.33;;;3.90;;
30896;SDS011;64229;52.246;21.054;2023-08-12T06:53:21;8.35;;;3.13;;
30896;SDS011;64229;52.246;21.054;2023-08-12T06:55:46;7.47;;;3.17;;
30896;SDS011;64229;52.246;21.054;2023-08-12T06:58:13;8.88;;;3.85;;
30896;SDS011;64229;52.246;21.054;2023-08-12T07:00:39;6.97;;;2.78;;
30896;SDS011;64229;52.246;21.054;2023-08-12T07:03:04;8.97;;;2.83;;
30896;SDS011;64229;52.246;21.054;2023-08-12T07:05:30;7.47;;;4.05;;
30896;SDS011;64229;52.246;21.054;2023-08-12T07:07:55;7.27;;;2.80;;
30896;SDS011;64229;52.246;21.054;2023-08-12T07:10:21;6.67;;;2.90;;
30896;SDS011;64229;52.246;21.054;2023-08-12T07:12:46;10.47;;;4.10;;
30896;SDS011;64229;52.246;21.054;2023-08-12T07:15:11;10.03;;;4.40;;
30896;SDS011;64229;52.246;21.054;2023-08-12T07:17:37;4.90;;;2.42;;
30896;SDS011;64229;52.246;21.054;2023-08-12T07:20:02;13.23;;;5.47;;
30896;SDS011;64229;52.246;21.054;2023-08-12T07:22:29;8.45;;;2.72;;
30896;SDS011;64229;52.246;21.054;2023-08-12T07:24:54;5.60;;;2.53;;
30896;SDS011;64229;52.246;21.054;2023-08-12T07:27:20;4.50;;;2.50;;
30896;SDS011;64229;52.246;21.054;2023-08-12T07:29:45;6.47;;;2.58;;
30896;SDS011;64229;52.246;21.054;2023-08-12T07:32:11;7.78;;;2.10;;
30896;SDS011;64229;52.246;21.054;2023-08-12T07:34:37;7.90;;;2.10;;
30896;SDS011;64229;52.246;21.054;2023-08-12T07:37:02;10.13;;;3.08;;
30896;SDS011;64229;52.246;21.054;2023-08-12T07:39:28;4.07;;;2.00;;
30896;SDS011;64229;52.246;21.054;2023-08-12T07:41:53;4.80;;;2.67;;
30896;SDS011;64229;52.246;21.054;2023-08-12T07:44:18;4.80;;;2.33;;
30896;SDS011;64229;52.246;21.054;2023-08-12T07:46:43;4.23;;;2.03;;
30896;SDS011;64229;52.246;21.054;2023-08-12T07:49:09;5.10;;;2.20;;
30896;SDS011;64229;52.246;21.054;2023-08-12T07:51:35;3.83;;;2.10;;
30896;SDS011;64229;52.246;21.054;2023-08-12T07:54:00;5.33;;;1.87;;
30896;SDS011;64229;52.246;21.054;2023-08-12T07:56:25;6.28;;;2.00;;
30896;SDS011;64229;52.246;21.054;2023-08-12T07:58:50;4.55;;;2.40;;
30896;SDS011;64229;52.246;21.054;2023-08-12T08:01:16;5.73;;;2.13;;
30896;SDS011;64229;52.246;21.054;2023-08-12T08:03:41;5.43;;;2.03;;
30896;SDS011;64229;52.246;21.054;2023-08-12T08:06:06;5.43;;;2.47;;
30896;SDS011;64229;52.246;21.054;2023-08-12T08:08:32;6.55;;;2.63;;
30896;SDS011;64229;52.246;21.054;2023-08-12T08:10:57;8.23;;;2.75;;
30896;SDS011;64229;52.246;21.054;2023-08-12T08:13:22;7.27;;;3.10;;
30896;SDS011;64229;52.246;21.054;2023-08-12T08:15:47;5.67;;;2.17;;
30896;SDS011;64229;52.246;21.054;2023-08-12T08:18:13;6.10;;;2.50;;
30896;SDS011;64229;52.246;21.054;2023-08-12T08:20:39;3.90;;;2.28;;
30896;SDS011;64229;52.246;21.054;2023-08-12T08:23:06;7.07;;;2.30;;
30896;SDS011;64229;52.246;21.054;2023-08-12T08:25:32;11.20;;;3.30;;
30896;SDS011;64229;52.246;21.054;2023-08-12T08:27:57;8.93;;;2.87;;
30896;SDS011;64229;52.246;21.054;2023-08-12T08:30:22;6.20;;;2.28;;
30896;SDS011;64229;52.246;21.054;2023-08-12T08:32:49;5.72;;;2.35;;
30896;SDS011;64229;52.246;21.054;2023-08-12T08:35:14;9.07;;;2.50;;
30896;SDS011;64229;52.246;21.054;2023-08-12T08:37:40;6.95;;;2.58;;
30896;SDS011;64229;52.246;21.054;2023-08-12T08:40:05;7.13;;;2.53;;
30896;SDS011;64229;52.246;21.054;2023-08-12T08:42:32;5.50;;;2.40;;
30896;SDS011;64229;52.246;21.054;2023-08-12T08:44:59;5.38;;;2.63;;
30896;SDS011;64229;52.246;21.054;2023-08-12T08:47:26;5.38;;;2.45;;
30896;SDS011;64229;52.246;21.054;2023-08-12T08:49:53;5.57;;;2.75;;
30896;SDS011;64229;52.246;21.054;2023-08-12T08:52:20;7.72;;;2.10;;
30896;SDS011;64229;52.246;21.054;2023-08-12T08:54:47;7.07;;;2.90;;
30896;SDS011;64229;52.246;21.054;2023-08-12T08:57:12;5.10;;;2.63;;
30896;SDS011;64229;52.246;21.054;2023-08-12T08:59:38;5.10;;;2.47;;
30896;SDS011;64229;52.246;21.054;2023-08-12T09:02:04;7.43;;;2.20;;
30896;SDS011;64229;52.246;21.054;2023-08-12T09:04:30;7.15;;;2.53;;
30896;SDS011;64229;52.246;21.054;2023-08-12T09:06:56;6.70;;;2.72;;
30896;SDS011;64229;52.246;21.054;2023-08-12T09:09:23;5.85;;;2.45;;
30896;SDS011;64229;52.246;21.054;2023-08-12T09:11:49;6.60;;;2.60;;
30896;SDS011;64229;52.246;21.054;2023-08-12T09:14:17;5.47;;;2.38;;
30896;SDS011;64229;52.246;21.054;2023-08-12T09:16:43;9.15;;;2.72;;
30896;SDS011;64229;52.246;21.054;2023-08-12T09:19:08;7.07;;;2.95;;
30896;SDS011;64229;52.246;21.054;2023-08-12T09:21:34;5.68;;;2.92;;
30896;SDS011;64229;52.246;21.054;2023-08-12T09:24:02;4.40;;;2.17;;
30896;SDS011;64229;52.246;21.054;2023-08-12T09:26:29;4.68;;;2.63;;
30896;SDS011;64229;52.246;21.054;2023-08-12T09:28:54;7.63;;;2.93;;
30896;SDS011;64229;52.246;21.054;2023-08-12T09:31:23;5.85;;;2.78;;
30896;SDS011;64229;52.246;21.054;2023-08-12T09:33:51;4.90;;;2.55;;
30896;SDS011;64229;52.246;21.054;2023-08-12T09:36:18;5.97;;;2.55;;
30896;SDS011;64229;52.246;21.054;2023-08-12T09:38:44;7.07;;;2.78;;
30896;SDS011;64229;52.246;21.054;2023-08-12T09:41:10;7.10;;;2.88;;
30896;SDS011;64229;52.246;21.054;2023-08-12T09:43:35;5.00;;;2.27;;
30896;SDS011;64229;52.246;21.054;2023-08-12T09:46:05;6.63;;;2.65;;
30896;SDS011;64229;52.246;21.054;2023-08-12T09:48:31;4.43;;;2.45;;
30896;SDS011;64229;52.246;21.054;2023-08-12T09:50:57;6.95;;;2.67;;
30896;SDS011;64229;52.246;21.054;2023-08-12T09:53:22;9.15;;;1.85;;
30896;SDS011;64229;52.246;21.054;2023-08-12T09:55:48;4.75;;;2.10;;
30896;SDS011;64229;52.246;21.054;2023-08-12T09:58:15;8.82;;;3.17;;
30896;SDS011;64229;52.246;21.054;2023-08-12T10:00:43;7.43;;;3.05;;
30896;SDS011;64229;52.246;21.054;2023-08-12T10:03:08;8.93;;;3.13;;
30896;SDS011;64229;52.246;21.054;2023-08-12T10:05:35;7.75;;;2.90;;
30896;SDS011;64229;52.246;21.054;2023-08-12T10:08:02;10.18;;;3.50;;
30896;SDS011;64229;52.246;21.054;2023-08-12T10:10:29;7.97;;;3.25;;
30896;SDS011;64229;52.246;21.054;2023-08-12T10:12:55;8.55;;;3.15;;
30896;SDS011;64229;52.246;21.054;2023-08-12T10:15:20;8.07;;;3.10;;
30896;SDS011;64229;52.246;21.054;2023-08-12T10:17:46;8.63;;;3.33;;
30896;SDS011;64229;52.246;21.054;2023-08-12T10:20:14;7.03;;;2.95;;
30896;SDS011;64229;52.246;21.054;2023-08-12T10:22:47;7.65;;;3.03;;
30896;SDS011;64229;52.246;21.054;2023-08-12T10:25:14;7.70;;;3.42;;
30896;SDS011;64229;52.246;21.054;2023-08-12T10:27:40;6.93;;;3.30;;
30896;SDS011;64229;52.246;21.054;2023-08-12T10:30:06;8.85;;;3.20;;
30896;SDS011;64229;52.246;21.054;2023-08-12T10:32:33;6.60;;;3.20;;
30896;SDS011;64229;52.246;21.054;2023-08-12T10:34:58;7.10;;;2.80;;
30896;SDS011;64229;52.246;21.054;2023-08-12T10:37:24;7.50;;;3.20;;
30896;SDS011;64229;52.246;21.054;2023-08-12T10:39:53;8.70;;;3.00;;
30896;SDS011;64229;52.246;21.054;2023-08-12T10:45:10;7.05;;;3.22;;
30896;SDS011;64229;52.246;21.054;2023-08-12T10:47:43;5.95;;;2.97;;
30896;SDS011;64229;52.246;21.054;2023-08-12T10:50:16;8.93;;;3.08;;
30896;SDS011;64229;52.246;21.054;2023-08-12T10:52:43;9.38;;;3.55;;
30896;SDS011;64229;52.246;21.054;2023-08-12T10:55:20;8.00;;;3.45;;
30896;SDS011;64229;52.246;21.054;2023-08-12T10:57:49;7.82;;;3.55;;
30896;SDS011;64229;52.246;21.054;2023-08-12T11:00:17;5.82;;;2.65;;
30896;SDS011;64229;52.246;21.054;2023-08-12T11:02:48;5.28;;;2.85;;
30896;SDS011;64229;52.246;21.054;2023-08-12T11:05:15;9.25;;;2.95;;
30896;SDS011;64229;52.246;21.054;2023-08-12T11:07:44;7.45;;;3.63;;
30896;SDS011;64229;52.246;21.054;2023-08-12T11:10:15;6.60;;;3.15;;
30896;SDS011;64229;52.246;21.054;2023-08-12T11:12:54;7.40;;;2.78;;
30896;SDS011;64229;52.246;21.054;2023-08-12T11:15:33;8.05;;;2.83;;
30896;SDS011;64229;52.246;21.054;2023-08-12T11:18:05;6.43;;;3.03;;
30896;SDS011;64229;52.246;21.054;2023-08-12T11:20:32;8.05;;;3.55;;
30896;SDS011;64229;52.246;21.054;2023-08-12T11:22:58;4.70;;;2.63;;
30896;SDS011;64229;52.246;21.054;2023-08-12T11:25:24;11.23;;;3.67;;
30896;SDS011;64229;52.246;21.054;2023-08-12T11:27:51;8.82;;;3.50;;
30896;SDS011;64229;52.246;21.054;2023-08-12T11:30:17;7.45;;;4.05;;
30896;SDS011;64229;52.246;21.054;2023-08-12T11:32:45;9.68;;;3.50;;
30896;SDS011;64229;52.246;21.054;2023-08-12T11:35:12;6.95;;;3.50;;
30896;SDS011;64229;52.246;21.054;2023-08-12T11:37:40;6.88;;;3.10;;
30896;SDS011;64229;52.246;21.054;2023-08-12T11:40:07;11.98;;;4.05;;
30896;SDS011;64229;52.246;21.054;2023-08-12T11:42:35;11.27;;;4.95;;
30896;SDS011;64229;52.246;21.054;2023-08-12T11:45:02;6.90;;;3.25;;
30896;SDS011;64229;52.246;21.054;2023-08-12T11:47:30;7.32;;;3.10;;
30896;SDS011;64229;52.246;21.054;2023-08-12T11:49:56;9.05;;;3.35;;
30896;SDS011;64229;52.246;21.054;2023-08-12T11:52:22;7.35;;;3.70;;
30896;SDS011;64229;52.246;21.054;2023-08-12T11:54:48;6.40;;;3.08;;
30896;SDS011;64229;52.246;21.054;2023-08-12T11:57:15;8.88;;;3.75;;
30896;SDS011;64229;52.246;21.054;2023-08-12T11:59:40;5.65;;;2.92;;
30896;SDS011;64229;52.246;21.054;2023-08-12T12:02:05;11.63;;;3.10;;
30896;SDS011;64229;52.246;21.054;2023-08-12T12:04:31;7.33;;;2.93;;
30896;SDS011;64229;52.246;21.054;2023-08-12T12:06:57;7.03;;;3.40;;
30896;SDS011;64229;52.246;21.054;2023-08-12T12:09:22;8.50;;;3.95;;
30896;SDS011;64229;52.246;21.054;2023-08-12T12:11:51;8.43;;;3.42;;
30896;SDS011;64229;52.246;21.054;2023-08-12T12:14:17;10.27;;;3.53;;
30896;SDS011;64229;52.246;21.054;2023-08-12T12:16:47;8.30;;;2.95;;
30896;SDS011;64229;52.246;21.054;2023-08-12T12:19:15;8.43;;;3.22;;
30896;SDS011;64229;52.246;21.054;2023-08-12T12:21:42;7.03;;;3.10;;
30896;SDS011;64229;52.246;21.054;2023-08-12T12:24:09;6.00;;;2.85;;
30896;SDS011;64229;52.246;21.054;2023-08-12T12:26:35;8.05;;;3.22;;
30896;SDS011;64229;52.246;21.054;2023-08-12T12:29:01;8.57;;;3.70;;
30896;SDS011;64229;52.246;21.054;2023-08-12T12:31:28;8.70;;;3.47;;
30896;SDS011;64229;52.246;21.054;2023-08-12T12:33:53;8.90;;;4.15;;
30896;SDS011;64229;52.246;21.054;2023-08-12T12:36:19;9.70;;;4.73;;
30896;SDS011;64229;52.246;21.054;2023-08-12T12:38:44;8.80;;;4.20;;
30896;SDS011;64229;52.246;21.054;2023-08-12T12:41:09;8.10;;;3.57;;
30896;SDS011;64229;52.246;21.054;2023-08-12T12:43:34;14.50;;;4.60;;
30896;SDS011;64229;52.246;21.054;2023-08-12T12:45:59;8.27;;;3.20;;
30896;SDS011;64229;52.246;21.054;2023-08-12T12:48:25;6.68;;;3.20;;
30896;SDS011;64229;52.246;21.054;2023-08-12T12:50:50;9.20;;;3.90;;
30896;SDS011;64229;52.246;21.054;2023-08-12T12:53:15;9.07;;;3.30;;
30896;SDS011;64229;52.246;21.054;2023-08-12T12:55:41;7.20;;;3.60;;
30896;SDS011;64229;52.246;21.054;2023-08-12T12:58:06;7.90;;;3.50;;
30896;SDS011;64229;52.246;21.054;2023-08-12T13:00:31;7.40;;;3.53;;
30896;SDS011;64229;52.246;21.054;2023-08-12T13:02:56;8.47;;;4.03;;
30896;SDS011;64229;52.246;21.054;2023-08-12T13:05:22;7.80;;;3.83;;
30896;SDS011;64229;52.246;21.054;2023-08-12T13:07:48;9.13;;;3.87;;
30896;SDS011;64229;52.246;21.054;2023-08-12T13:10:13;7.57;;;4.03;;
30896;SDS011;64229;52.246;21.054;2023-08-12T13:12:38;6.72;;;3.47;;
30896;SDS011;64229;52.246;21.054;2023-08-12T13:15:04;7.93;;;3.20;;
30896;SDS011;64229;52.246;21.054;2023-08-12T13:17:29;7.55;;;3.42;;
30896;SDS011;64229;52.246;21.054;2023-08-12T13:19:54;6.20;;;3.10;;
30896;SDS011;64229;52.246;21.054;2023-08-12T13:22:20;9.03;;;3.47;;
30896;SDS011;64229;52.246;21.054;2023-08-12T13:24:45;8.60;;;3.47;;
30896;SDS011;64229;52.246;21.054;2023-08-12T13:27:11;6.43;;;3.58;;
30896;SDS011;64229;52.246;21.054;2023-08-12T13:29:38;8.50;;;3.53;;
30896;SDS011;64229;52.246;21.054;2023-08-12T13:32:03;10.80;;;3.97;;
30896;SDS011;64229;52.246;21.054;2023-08-12T13:34:28;7.40;;;4.10;;
30896;SDS011;64229;52.246;21.054;2023-08-12T13:36:54;6.87;;;2.90;;
30896;SDS011;64229;52.246;21.054;2023-08-12T13:39:19;7.37;;;3.23;;
30896;SDS011;64229;52.246;21.054;2023-08-12T13:41:45;7.00;;;2.85;;
30896;SDS011;64229;52.246;21.054;2023-08-12T13:44:10;7.63;;;3.10;;
30896;SDS011;64229;52.246;21.054;2023-08-12T13:46:36;5.57;;;2.87;;
30896;SDS011;64229;52.246;21.054;2023-08-12T13:49:01;8.63;;;3.50;;
30896;SDS011;64229;52.246;21.054;2023-08-12T13:51:26;7.72;;;3.05;;
30896;SDS011;64229;52.246;21.054;2023-08-12T13:53:52;5.43;;;2.75;;
30896;SDS011;64229;52.246;21.054;2023-08-12T13:56:17;7.53;;;3.43;;
30896;SDS011;64229;52.246;21.054;2023-08-12T13:58:43;7.10;;;2.95;;
30896;SDS011;64229;52.246;21.054;2023-08-12T14:01:08;7.80;;;3.80;;
30896;SDS011;64229;52.246;21.054;2023-08-12T14:03:33;8.00;;;3.17;;
30896;SDS011;64229;52.246;21.054;2023-08-12T14:05:59;5.88;;;2.97;;
30896;SDS011;64229;52.246;21.054;2023-08-12T14:08:24;7.93;;;2.90;;
30896;SDS011;64229;52.246;21.054;2023-08-12T14:10:49;6.47;;;2.90;;
30896;SDS011;64229;52.246;21.054;2023-08-12T14:13:15;5.15;;;2.97;;
30896;SDS011;64229;52.246;21.054;2023-08-12T14:15:40;6.17;;;3.33;;
30896;SDS011;64229;52.246;21.054;2023-08-12T14:18:06;6.45;;;3.35;;
30896;SDS011;64229;52.246;21.054;2023-08-12T14:20:31;6.83;;;3.33;;
30896;SDS011;64229;52.246;21.054;2023-08-12T14:22:57;8.63;;;3.05;;
30896;SDS011;64229;52.246;21.054;2023-08-12T14:25:22;5.43;;;2.87;;